KTIK/TIK METAR and TAF weather

Enter ICAO airport designator
Station Type Date Time Source
KTIK METAR 2024/07/23 03:55 UTC NOAA

KTIK 230355Z AUTO 00000KT 10SM CLR 24/17 A2999 RMK AO2 SLP145 T02390174 $


Station Type Date Time Source
KTIK Decoded METAR 2024/07/23 03:55 UTC NOAA

Tinker Air Force Base, OK, United States (KTIK) 35-25N 097-23W 397M
Jul 22, 2024 - 11:55 PM EDT / 2024.07.23 0355 UTC
Wind: Calm:0
Visibility: 10 mile(s):0
Sky conditions: clear
Temperature: 75.0 F (23.9 C)
Dew Point: 63.3 F (17.4 C)
Relative Humidity: 66%
Pressure (altimeter): 29.99 in. Hg (1015 hPa)
ob: KTIK 230355Z AUTO 00000KT 10SM CLR 24/17 A2999 RMK AO2 SLP145 T02390174
cycle: 4

Station Type Date Time Source
KTIK TAF 2024/07/23 01:03 UTC NOAA